Time;durP1;ratioP1;P1;durP2;ratioP2;P2;SDS_P1;SDS_P2;PMS_P1;PMS_P2;Temp;Humidity;BMP_temperature;BMP_pressure;BME280_temperature;BME280_humidity;BME280_pressure;Samples;Min_cycle;Max_cycle;Signal;HPM_P1;HPM_P2
2021/04/17 00:01:18;;;;;;;4.82;0.20;;;5.50;88.30;;;;;;3578806;40;20037;-79
2021/04/17 00:03:44;;;;;;;0.57;0.10;;;5.50;88.40;;;;;;3587278;40;20044;-78
2021/04/17 00:06:11;;;;;;;2.28;0.10;;;5.50;88.80;;;;;;3576720;40;20037;-79
2021/04/17 00:08:37;;;;;;;5.07;0.20;;;5.40;88.40;;;;;;3578743;40;20047;-79
2021/04/17 00:11:04;;;;;;;3.05;0.10;;;5.40;88.40;;;;;;3587217;40;20420;-78
2021/04/17 00:13:30;;;;;;;1.63;0.25;;;5.40;90.30;;;;;;3586901;40;20047;-79
2021/04/17 00:15:57;;;;;;;4.88;0.43;;;5.40;89.30;;;;;;3587064;40;20417;-79
2021/04/17 00:18:23;;;;;;;2.97;0.20;;;5.40;88.50;;;;;;3586187;40;20048;-78
2021/04/17 00:20:49;;;;;;;3.00;0.65;;;5.40;89.10;;;;;;3577664;40;20046;-78
2021/04/17 00:23:16;;;;;;;1.45;0.10;;;5.30;88.40;;;;;;3586983;40;20247;-78
2021/04/17 00:25:42;;;;;;;2.25;0.20;;;5.30;89.10;;;;;;3586925;40;20040;-79
2021/04/17 00:28:09;;;;;;;0.50;0.20;;;5.30;89.20;;;;;;3586715;40;20053;-78
2021/04/17 00:30:34;;;;;;;1.85;0.22;;;5.30;88.80;;;;;;3586817;40;20040;-79
2021/04/17 00:33:01;;;;;;;0.30;0.08;;;5.30;90.10;;;;;;3587149;40;20100;-78
2021/04/17 00:35:26;;;;;;;1.67;0.20;;;5.30;90.20;;;;;;3586545;40;20048;-78
2021/04/17 00:37:52;;;;;;;1.77;0.20;;;5.30;89.50;;;;;;3586512;40;20141;-79
2021/04/17 00:40:18;;;;;;;7.97;0.57;;;5.30;90.20;;;;;;3586544;40;20121;-77
2021/04/17 00:42:44;;;;;;;1.40;0.20;;;5.30;90.00;;;;;;3577667;40;20039;-78
2021/04/17 00:45:10;;;;;;;2.45;0.40;;;5.30;90.80;;;;;;3586470;40;20040;-78
2021/04/17 00:47:36;;;;;;;0.82;0.20;;;5.20;89.80;;;;;;3585844;40;20063;-78
2021/04/17 00:50:03;;;;;;;1.98;0.20;;;5.20;89.60;;;;;;3577435;40;20035;-79
2021/04/17 00:52:29;;;;;;;7.18;0.28;;;5.20;89.90;;;;;;3586497;40;20036;-79
2021/04/17 00:54:55;;;;;;;5.35;0.32;;;5.20;89.90;;;;;;3586802;40;20046;-78
2021/04/17 00:57:21;;;;;;;0.55;0.20;;;5.20;90.10;;;;;;3577063;40;20039;-79
2021/04/17 00:59:47;;;;;;;1.40;0.22;;;5.20;90.00;;;;;;3577127;40;20041;-78
2021/04/17 01:02:18;;;;;;;3.63;0.30;;;5.20;90.50;;;;;;3575748;40;20048;-79
2021/04/17 01:04:49;;;;;;;2.83;0.13;;;5.20;90.50;;;;;;3583146;40;20036;-78
2021/04/17 01:07:21;;;;;;;3.72;0.32;;;5.20;90.20;;;;;;3585502;40;20125;-79
2021/04/17 01:10:07;;;;;;;1.23;0.20;;;5.20;90.00;;;;;;3586768;40;20341;-78
2021/04/17 01:12:37;;;;;;;4.32;0.30;;;5.20;89.80;;;;;;3586398;40;20361;-79
2021/04/17 01:15:05;;;;;;;8.70;0.43;;;5.20;90.30;;;;;;3577147;40;20052;-79
2021/04/17 01:17:33;;;;;;;7.20;0.45;;;5.20;90.60;;;;;;3585501;40;20040;-80
2021/04/17 01:20:16;;;;;;;5.72;0.30;;;5.10;90.60;;;;;;3586628;40;20037;-78
2021/04/17 01:22:47;;;;;;;4.95;0.30;;;5.10;90.50;;;;;;3577277;40;20056;-79
2021/04/17 01:25:17;;;;;;;3.50;0.30;;;5.20;91.00;;;;;;3578183;40;20047;-77
2021/04/17 01:27:42;;;;;;;2.10;0.75;;;5.20;91.20;;;;;;3583280;40;20328;-78
2021/04/17 01:30:18;;;;;;;1.55;0.40;;;5.20;91.10;;;;;;3584509;40;20041;-79
2021/04/17 01:32:45;;;;;;;1.55;0.20;;;5.20;91.00;;;;;;3579920;40;20050;-78
2021/04/17 01:35:19;;;;;;;7.88;0.43;;;5.20;90.50;;;;;;3586331;40;20100;-77
2021/04/17 01:37:51;;;;;;;1.92;0.82;;;5.10;90.00;;;;;;3586375;40;20040;-78
2021/04/17 01:40:20;;;;;;;6.43;0.43;;;5.10;90.10;;;;;;3579911;40;20072;-79
2021/04/17 01:42:46;;;;;;;3.97;0.50;;;5.00;89.70;;;;;;3586423;40;20140;-78
2021/04/17 01:45:17;;;;;;;1.40;0.90;;;4.80;89.50;;;;;;3577172;40;20420;-78
2021/04/17 01:47:45;;;;;;;3.70;0.30;;;4.80;90.00;;;;;;3581622;40;20549;-78
2021/04/17 01:50:13;;;;;;;3.63;0.28;;;4.70;90.20;;;;;;3586380;40;20054;-78
2021/04/17 01:52:42;;;;;;;4.03;0.40;;;4.60;90.30;;;;;;3586481;40;20048;-78
2021/04/17 01:55:08;;;;;;;3.03;0.40;;;4.60;90.80;;;;;;3586207;40;20041;-77
2021/04/17 01:57:36;;;;;;;4.50;0.30;;;4.60;90.40;;;;;;3577180;40;20043;-78
2021/04/17 02:00:04;;;;;;;5.03;1.40;;;4.50;90.20;;;;;;3585363;40;20052;-78
2021/04/17 02:02:30;;;;;;;5.88;0.40;;;4.50;90.20;;;;;;3586099;40;20321;-78
2021/04/17 02:04:55;;;;;;;3.30;0.70;;;4.50;90.10;;;;;;3586285;40;20074;-77
2021/04/17 02:07:21;;;;;;;2.05;0.40;;;4.40;90.30;;;;;;3585984;40;20048;-78
2021/04/17 02:09:47;;;;;;;3.78;0.38;;;4.40;90.30;;;;;;3585697;40;20063;-78
2021/04/17 02:12:13;;;;;;;4.22;0.43;;;4.40;90.10;;;;;;3576951;40;20080;-78
2021/04/17 02:14:39;;;;;;;6.90;0.50;;;4.30;90.60;;;;;;3585297;40;20297;-78
2021/04/17 02:17:20;;;;;;;6.68;1.13;;;4.30;90.20;;;;;;3585064;40;20056;-78
2021/04/17 02:19:56;;;;;;;8.13;0.77;;;4.40;90.20;;;;;;3586127;40;20047;-79
2021/04/17 02:22:24;;;;;;;4.85;0.50;;;4.30;90.20;;;;;;3578246;40;20063;-78
2021/04/17 02:24:51;;;;;;;5.07;0.30;;;4.30;90.60;;;;;;3586397;40;20048;-78
2021/04/17 02:27:18;;;;;;;3.80;0.45;;;4.30;90.30;;;;;;3582279;40;20051;-78
2021/04/17 02:29:47;;;;;;;5.50;0.50;;;4.30;90.80;;;;;;3583929;40;20048;-78
2021/04/17 02:32:14;;;;;;;10.95;0.73;;;4.30;91.30;;;;;;3585178;40;20145;-78
2021/04/17 02:34:41;;;;;;;4.57;0.40;;;4.40;91.80;;;;;;3585840;40;20126;-78
2021/04/17 02:37:06;;;;;;;4.78;0.40;;;4.40;91.60;;;;;;3586177;40;20039;-78
2021/04/17 02:39:33;;;;;;;5.10;0.40;;;4.50;91.00;;;;;;3585678;40;20044;-79
2021/04/17 02:41:58;;;;;;;4.80;0.73;;;4.50;90.80;;;;;;3585614;40;20124;-78
2021/04/17 02:44:24;;;;;;;3.90;0.32;;;4.50;91.00;;;;;;3585743;40;20158;-77
2021/04/17 02:46:50;;;;;;;10.50;0.65;;;4.50;91.00;;;;;;3585107;40;20036;-78
2021/04/17 02:49:16;;;;;;;7.00;1.10;;;4.50;90.90;;;;;;3584797;40;20049;-78
2021/04/17 02:51:41;;;;;;;3.17;0.50;;;4.50;91.00;;;;;;3585748;40;20052;-77
2021/04/17 02:54:07;;;;;;;3.33;0.52;;;4.50;91.20;;;;;;3584945;40;20639;-78
2021/04/17 02:56:33;;;;;;;8.27;1.10;;;4.40;90.70;;;;;;3585602;40;20185;-78
2021/04/17 02:58:59;;;;;;;6.78;0.50;;;4.40;91.00;;;;;;3586242;40;20048;-77
2021/04/17 03:01:25;;;;;;;4.47;0.55;;;4.40;90.80;;;;;;3585734;40;20068;-79
2021/04/17 03:03:50;;;;;;;7.97;0.65;;;4.40;91.90;;;;;;3586224;40;20044;-79
2021/04/17 03:06:16;;;;;;;8.85;2.55;;;4.40;91.40;;;;;;3585725;40;20044;-77
2021/04/17 03:08:42;;;;;;;3.20;1.13;;;4.40;91.30;;;;;;3585887;40;20052;-79
2021/04/17 03:11:08;;;;;;;3.75;0.70;;;4.40;91.60;;;;;;3585731;40;20036;-78
2021/04/17 03:13:34;;;;;;;9.57;0.60;;;4.40;91.70;;;;;;3576404;40;20045;-78
2021/04/17 03:16:00;;;;;;;6.60;0.55;;;4.40;90.90;;;;;;3585715;40;20044;-79
2021/04/17 03:18:25;;;;;;;4.22;0.73;;;4.40;91.00;;;;;;3585487;40;20073;-78
2021/04/17 03:20:52;;;;;;;8.13;0.70;;;4.40;91.70;;;;;;3576273;40;20032;-78
2021/04/17 03:23:18;;;;;;;6.95;0.75;;;4.50;92.40;;;;;;3576196;40;20056;-78
2021/04/17 03:25:44;;;;;;;12.50;1.42;;;4.50;92.10;;;;;;3585762;40;20040;-78
2021/04/17 03:28:09;;;;;;;6.78;0.60;;;4.50;92.60;;;;;;3585746;40;20080;-79
2021/04/17 03:30:35;;;;;;;4.07;0.70;;;4.60;92.40;;;;;;3585573;40;20041;-77
2021/04/17 03:33:02;;;;;;;5.97;0.88;;;4.60;92.00;;;;;;3585476;40;20098;-77
2021/04/17 03:35:30;;;;;;;7.82;0.90;;;4.70;91.50;;;;;;3585377;40;20048;-78
2021/04/17 03:37:56;;;;;;;10.30;1.00;;;4.70;92.30;;;;;;3576271;40;20089;-78
2021/04/17 03:40:22;;;;;;;7.30;0.98;;;4.60;92.40;;;;;;3575696;40;20037;-78
2021/04/17 03:42:48;;;;;;;6.70;1.58;;;4.60;92.60;;;;;;3585584;40;20126;-79
2021/04/17 03:45:15;;;;;;;6.18;1.10;;;4.60;93.40;;;;;;3585290;40;20044;-79
2021/04/17 03:47:41;;;;;;;6.95;1.08;;;4.70;93.10;;;;;;3576245;40;20041;-78
2021/04/17 03:50:08;;;;;;;9.95;0.82;;;4.80;93.30;;;;;;3585640;40;20036;-77
2021/04/17 03:52:35;;;;;;;12.70;1.45;;;4.90;93.00;;;;;;3585287;40;20040;-80
2021/04/17 03:55:01;;;;;;;12.73;1.60;;;4.90;92.50;;;;;;3586635;40;20055;-78
2021/04/17 03:57:27;;;;;;;8.82;0.80;;;4.90;92.60;;;;;;3585854;40;20051;-78
2021/04/17 03:59:53;;;;;;;4.82;1.10;;;4.90;92.40;;;;;;3586214;40;20044;-78
2021/04/17 04:02:19;;;;;;;10.38;1.10;;;4.90;92.60;;;;;;3577291;40;20461;-79
2021/04/17 04:04:45;;;;;;;9.63;1.60;;;4.80;93.10;;;;;;3581200;40;20041;-78
2021/04/17 04:07:10;;;;;;;15.82;1.20;;;4.90;92.90;;;;;;3577595;40;20526;-77
2021/04/17 04:09:36;;;;;;;5.53;0.98;;;4.90;93.20;;;;;;3586065;40;20325;-78
2021/04/17 04:12:06;;;;;;;6.00;1.02;;;4.90;93.90;;;;;;3586310;40;20315;-78
2021/04/17 04:14:32;;;;;;;9.85;1.45;;;5.00;92.90;;;;;;3569165;40;20332;-79
2021/04/17 04:16:57;;;;;;;10.73;1.30;;;4.90;92.70;;;;;;3587167;40;20048;-78
2021/04/17 04:19:23;;;;;;;12.95;1.95;;;5.00;93.40;;;;;;3586592;40;20041;-79
2021/04/17 04:21:49;;;;;;;9.65;1.02;;;5.00;93.00;;;;;;3587100;40;20036;-78
2021/04/17 04:24:15;;;;;;;6.45;1.13;;;5.00;93.20;;;;;;3575854;40;20041;-78
2021/04/17 04:26:41;;;;;;;11.68;1.40;;;5.00;93.30;;;;;;3584382;40;20044;-78
2021/04/17 04:29:07;;;;;;;8.23;0.65;;;5.00;92.90;;;;;;3585999;40;20064;-77
2021/04/17 04:31:34;;;;;;;11.45;1.75;;;5.00;92.60;;;;;;3586708;40;20076;-80
2021/04/17 04:34:00;;;;;;;9.82;1.30;;;5.00;92.80;;;;;;3585936;40;20146;-78
2021/04/17 04:36:26;;;;;;;8.13;1.13;;;5.00;92.40;;;;;;3586288;40;20044;-78
2021/04/17 04:38:51;;;;;;;13.82;1.15;;;5.00;92.90;;;;;;3586808;40;20375;-77
2021/04/17 04:41:17;;;;;;;8.98;1.58;;;5.00;92.80;;;;;;3585631;40;20047;-79
2021/04/17 04:43:43;;;;;;;20.38;1.55;;;5.00;93.10;;;;;;3586744;40;20125;-77
2021/04/17 04:46:09;;;;;;;9.00;1.00;;;5.00;92.80;;;;;;3586700;40;20338;-78
2021/04/17 04:48:34;;;;;;;22.10;2.47;;;5.00;92.80;;;;;;3586778;40;20048;-78
2021/04/17 04:51:00;;;;;;;10.13;1.83;;;5.00;92.40;;;;;;3586820;40;20040;-79
2021/04/17 04:53:26;;;;;;;12.65;1.30;;;5.10;93.50;;;;;;3568771;40;20099;-78
2021/04/17 04:55:52;;;;;;;10.43;1.38;;;5.10;93.10;;;;;;3586010;40;20037;-78
2021/04/17 04:58:18;;;;;;;9.05;1.35;;;5.10;93.10;;;;;;3574329;40;20101;-79
2021/04/17 05:00:44;;;;;;;17.02;2.10;;;5.20;93.00;;;;;;3585880;40;20044;-79
2021/04/17 05:03:10;;;;;;;11.93;0.95;;;5.20;93.40;;;;;;3575232;40;20039;-78
2021/04/17 05:05:36;;;;;;;18.58;1.48;;;5.20;92.90;;;;;;3583877;40;20073;-79
2021/04/17 05:08:02;;;;;;;12.02;1.67;;;5.30;93.50;;;;;;3586804;40;20055;-78
2021/04/17 05:10:28;;;;;;;9.82;2.03;;;5.30;93.60;;;;;;3586424;40;20044;-78
2021/04/17 05:12:54;;;;;;;11.02;1.85;;;5.40;93.50;;;;;;3586803;40;20080;-78
2021/04/17 05:15:20;;;;;;;11.75;1.60;;;5.40;93.10;;;;;;3586093;40;20083;-78
2021/04/17 05:17:46;;;;;;;9.32;1.60;;;5.40;93.00;;;;;;3577380;40;20048;-78
2021/04/17 05:20:12;;;;;;;10.98;0.98;;;5.40;92.80;;;;;;3586448;40;20138;-78
2021/04/17 05:22:38;;;;;;;9.57;2.53;;;5.50;93.20;;;;;;3577255;40;20044;-78
2021/04/17 05:25:05;;;;;;;9.27;0.90;;;5.50;93.00;;;;;;3577331;40;20052;-78
2021/04/17 05:27:31;;;;;;;11.80;1.73;;;5.60;92.90;;;;;;3586415;40;20194;-78
2021/04/17 05:29:56;;;;;;;13.23;2.97;;;5.60;93.20;;;;;;3577651;40;20677;-78
2021/04/17 05:32:22;;;;;;;15.88;1.52;;;5.60;92.60;;;;;;3577446;40;20073;-79
2021/04/17 05:34:48;;;;;;;5.28;1.67;;;5.70;93.10;;;;;;3577443;40;20032;-78
2021/04/17 05:37:14;;;;;;;8.63;1.42;;;5.70;93.70;;;;;;3577159;40;20084;-78
2021/04/17 05:39:40;;;;;;;10.95;0.98;;;5.80;93.40;;;;;;3586236;40;20517;-78
2021/04/17 05:42:06;;;;;;;7.50;1.08;;;5.90;93.30;;;;;;3585759;40;20280;-79
2021/04/17 05:44:32;;;;;;;7.97;1.63;;;5.90;93.10;;;;;;3576873;40;20052;-79
2021/04/17 05:46:58;;;;;;;10.20;1.42;;;5.90;92.90;;;;;;3586658;40;20072;-78
2021/04/17 05:49:24;;;;;;;12.45;0.90;;;6.00;93.20;;;;;;3576840;40;20037;-78
2021/04/17 05:51:50;;;;;;;10.35;1.20;;;6.00;93.10;;;;;;3586637;40;20041;-79
2021/04/17 05:54:17;;;;;;;7.28;0.82;;;6.10;93.30;;;;;;3586472;40;20072;-79
2021/04/17 05:56:43;;;;;;;11.60;1.55;;;6.00;92.80;;;;;;3611581;22;20044;-78
2021/04/17 05:59:09;;;;;;;9.68;1.52;;;6.20;92.60;;;;;;3596080;40;20092;-79
2021/04/17 06:01:35;;;;;;;9.60;1.88;;;6.30;92.90;;;;;;3587080;40;20323;-78
2021/04/17 06:04:01;;;;;;;11.82;1.42;;;6.30;92.90;;;;;;3587092;40;20047;-79
2021/04/17 06:06:27;;;;;;;12.60;1.65;;;6.50;93.40;;;;;;3595956;40;20052;-79
2021/04/17 06:08:53;;;;;;;8.95;2.10;;;7.20;93.50;;;;;;3596648;40;20596;-79
2021/04/17 06:11:19;;;;;;;8.23;1.45;;;7.90;92.40;;;;;;3586903;40;20044;-78
2021/04/17 06:13:45;;;;;;;8.15;1.23;;;8.40;91.80;;;;;;3576957;40;20047;-79
2021/04/17 06:16:10;;;;;;;9.32;1.08;;;8.70;91.10;;;;;;3583931;40;20040;-78
2021/04/17 06:18:37;;;;;;;7.95;1.30;;;8.80;90.70;;;;;;3595170;39;20255;-78
2021/04/17 06:21:04;;;;;;;13.43;1.63;;;9.00;90.30;;;;;;3599279;39;20153;-78
2021/04/17 06:23:30;;;;;;;13.13;1.00;;;9.30;90.20;;;;;;3598530;39;20072;-78
2021/04/17 06:25:56;;;;;;;9.77;0.90;;;9.60;89.20;;;;;;3595081;39;20047;-77
2021/04/17 06:28:22;;;;;;;4.55;0.70;;;9.50;88.20;;;;;;3597608;39;20094;-79
2021/04/17 06:30:48;;;;;;;6.88;0.70;;;9.50;89.30;;;;;;3595085;40;20044;-78
2021/04/17 06:33:14;;;;;;;5.07;1.40;;;9.40;88.20;;;;;;3596792;39;20039;-78
2021/04/17 06:35:40;;;;;;;9.32;0.75;;;9.20;89.00;;;;;;3589759;40;20048;-77
2021/04/17 06:38:12;;;;;;;7.85;0.85;;;9.10;90.10;;;;;;3595437;40;20417;-77
2021/04/17 06:40:38;;;;;;;6.97;1.10;;;9.10;90.30;;;;;;3597345;39;20042;-77
2021/04/17 06:43:05;;;;;;;5.35;0.57;;;9.50;90.20;;;;;;3604418;39;20114;-79
2021/04/17 06:45:36;;;;;;;6.10;1.35;;;10.00;88.80;;;;;;3596007;39;20042;-78
2021/04/17 06:48:08;;;;;;;6.43;1.48;;;10.60;89.10;;;;;;3595947;39;20146;-77
2021/04/17 06:50:36;;;;;;;6.03;1.27;;;11.10;82.90;;;;;;3605982;39;20366;-78
2021/04/17 06:53:03;;;;;;;10.55;1.10;;;11.40;85.50;;;;;;3595543;39;20327;-78
2021/04/17 06:55:29;;;;;;;4.45;0.90;;;11.60;85.70;;;;;;3592444;39;20044;-77
2021/04/17 06:57:56;;;;;;;5.68;1.20;;;11.80;84.30;;;;;;3601885;39;20079;-77
2021/04/17 07:00:23;;;;;;;8.93;0.93;;;12.00;82.50;;;;;;3581875;39;20036;-78
2021/04/17 07:02:49;;;;;;;6.57;0.93;;;12.30;82.40;;;;;;3590502;39;20055;-77
2021/04/17 07:05:15;;;;;;;6.93;0.70;;;12.60;82.10;;;;;;3591779;39;20331;-78
2021/04/17 07:07:41;;;;;;;5.13;0.77;;;12.70;79.60;;;;;;3602800;39;20039;-78
2021/04/17 07:10:07;;;;;;;6.47;0.75;;;12.80;80.60;;;;;;3590226;39;20075;-77
2021/04/17 07:12:33;;;;;;;6.70;0.57;;;13.00;80.80;;;;;;3596659;39;20043;-78
2021/04/17 07:15:07;;;;;;;6.60;0.82;;;13.20;80.00;;;;;;3600245;39;20040;-78
2021/04/17 07:17:35;;;;;;;7.82;0.80;;;13.10;78.90;;;;;;3599944;39;20046;-78
2021/04/17 07:20:07;;;;;;;6.88;0.90;;;13.20;79.10;;;;;;3600857;39;20043;-78
2021/04/17 07:22:35;;;;;;;5.45;1.05;;;13.20;78.30;;;;;;3603947;39;20044;-78
2021/04/17 07:25:07;;;;;;;8.35;1.10;;;13.20;79.80;;;;;;3602854;39;20252;-78
2021/04/17 07:27:44;;;;;;;4.25;0.47;;;13.20;79.50;;;;;;3600416;39;20039;-78
2021/04/17 07:30:16;;;;;;;13.15;0.82;;;13.30;73.00;;;;;;3603749;39;20067;-77
2021/04/17 07:32:41;;;;;;;4.22;0.82;;;13.20;78.40;;;;;;3607126;39;20067;-78
2021/04/17 07:35:16;;;;;;;6.53;1.17;;;13.20;80.00;;;;;;3602694;39;20302;-78
2021/04/17 07:37:44;;;;;;;8.50;1.25;;;13.10;76.60;;;;;;3603180;39;20042;-78
2021/04/17 07:40:16;;;;;;;6.78;0.82;;;13.20;79.00;;;;;;3602962;39;20047;-78
2021/04/17 07:42:43;;;;;;;8.52;0.93;;;13.50;76.00;;;;;;3604446;39;20043;-78
2021/04/17 07:45:24;;;;;;;9.23;1.27;;;13.40;76.00;;;;;;3604540;39;20556;-77
2021/04/17 07:47:52;;;;;;;8.38;1.73;;;13.30;75.30;;;;;;3602714;39;20039;-77
2021/04/17 07:50:18;;;;;;;8.85;0.93;;;13.40;78.60;;;;;;3605534;39;20113;-78
2021/04/17 07:52:46;;;;;;;7.70;0.90;;;13.60;78.20;;;;;;3594945;39;20133;-77
2021/04/17 07:55:17;;;;;;;13.27;1.77;;;13.90;75.20;;;;;;3597643;39;20036;-78
2021/04/17 07:57:46;;;;;;;6.15;1.10;;;13.80;73.10;;;;;;3603798;39;20035;-78
2021/04/17 08:00:20;;;;;;;9.32;0.80;;;13.70;74.70;;;;;;3603826;39;20124;-77
2021/04/17 08:02:51;;;;;;;3.13;0.65;;;13.80;73.00;;;;;;3599394;39;20047;-78
2021/04/17 08:05:19;;;;;;;11.07;0.93;;;13.80;74.10;;;;;;3604875;39;20129;-78
2021/04/17 08:07:45;;;;;;;6.65;0.98;;;14.00;75.30;;;;;;3603202;39;20128;-78
2021/04/17 08:10:13;;;;;;;7.22;1.00;;;14.10;68.80;;;;;;3594440;39;20036;-78
2021/04/17 08:12:40;;;;;;;5.63;0.40;;;14.20;71.90;;;;;;3604358;39;20044;-78
2021/04/17 08:15:10;;;;;;;8.15;0.90;;;14.40;70.90;;;;;;3600174;39;20051;-78
2021/04/17 08:17:41;;;;;;;5.22;1.25;;;14.60;70.30;;;;;;3595097;39;20059;-78
2021/04/17 08:20:12;;;;;;;3.75;1.30;;;14.70;74.10;;;;;;3603768;39;20373;-78
2021/04/17 08:22:39;;;;;;;6.97;0.88;;;14.80;69.30;;;;;;3605644;39;20400;-78
2021/04/17 08:25:07;;;;;;;4.03;0.60;;;14.80;71.40;;;;;;3596741;39;20043;-78
2021/04/17 08:27:34;;;;;;;2.70;1.02;;;14.90;71.90;;;;;;3595586;39;20369;-78
2021/04/17 08:30:09;;;;;;;5.18;0.93;;;15.00;71.20;;;;;;3603844;39;20039;-78
2021/04/17 08:32:35;;;;;;;5.60;1.27;;;15.10;70.90;;;;;;3590089;39;20038;-77
2021/04/17 08:35:13;;;;;;;5.78;0.40;;;15.00;66.90;;;;;;3593703;39;20347;-78
2021/04/17 08:38:03;;;;;;;5.22;0.55;;;15.00;65.50;;;;;;3603787;39;20042;-78
2021/04/17 08:40:32;;;;;;;4.32;0.63;;;14.70;63.00;;;;;;3595866;39;20037;-78
2021/04/17 08:42:59;;;;;;;6.47;0.77;;;14.50;70.90;;;;;;3605405;39;20036;-78
2021/04/17 08:45:25;;;;;;;4.57;0.40;;;14.40;70.70;;;;;;3595025;39;20333;-78
2021/04/17 08:47:54;;;;;;;2.85;0.50;;;14.20;71.90;;;;;;3606331;39;20650;-78
2021/04/17 08:50:36;;;;;;;4.65;1.35;;;14.10;73.10;;;;;;3605670;39;20392;-78
2021/04/17 08:53:15;;;;;;;4.55;0.68;;;13.90;70.10;;;;;;3604397;39;20310;-78
2021/04/17 08:55:44;;;;;;;4.85;1.15;;;13.90;68.80;;;;;;3592152;40;20420;-77
2021/04/17 08:58:25;;;;;;;7.47;0.82;;;13.70;71.00;;;;;;3593936;39;20036;-78
2021/04/17 09:00:51;;;;;;;6.03;0.35;;;13.70;72.50;;;;;;3602176;39;20035;-78
2021/04/17 09:03:40;;;;;;;2.53;0.80;;;13.60;70.50;;;;;;3604677;39;20074;-78
2021/04/17 09:06:09;;;;;;;5.22;1.27;;;13.50;62.00;;;;;;3598323;39;20351;-77
2021/04/17 09:08:38;;;;;;;4.00;0.75;;;13.40;70.40;;;;;;3597629;39;20063;-79
2021/04/17 09:11:36;;;;;;;5.05;0.40;;;13.30;71.50;;;;;;3593848;39;20083;-77
2021/04/17 09:14:23;;;;;;;6.45;1.67;;;13.20;66.10;;;;;;3584680;39;20035;-78
2021/04/17 09:16:48;;;;;;;7.03;0.98;;;13.10;73.40;;;;;;3602173;39;20044;-78
2021/04/17 09:19:40;;;;;;;4.60;0.50;;;13.00;72.60;;;;;;3604671;39;20128;-78
2021/04/17 09:22:28;;;;;;;3.38;0.60;;;12.80;66.90;;;;;;3596709;39;20411;-77
2021/04/17 09:24:58;;;;;;;4.50;0.40;;;12.70;70.20;;;;;;3606227;39;20043;-78
2021/04/17 09:27:26;;;;;;;5.53;0.70;;;12.60;68.60;;;;;;3601685;39;20051;-77
2021/04/17 09:30:09;;;;;;;4.28;0.60;;;12.40;68.20;;;;;;3601768;39;20058;-77
2021/04/17 09:32:38;;;;;;;4.38;0.50;;;12.20;68.90;;;;;;3603370;39;20043;-78
2021/04/17 09:35:24;;;;;;;3.95;0.55;;;12.10;73.50;;;;;;3603255;39;20475;-78
2021/04/17 09:38:04;;;;;;;4.53;0.70;;;11.90;68.50;;;;;;3602188;39;20079;-78
2021/04/17 09:40:31;;;;;;;4.70;0.70;;;11.80;74.10;;;;;;3593911;39;20043;-77
2021/04/17 09:42:58;;;;;;;3.38;1.67;;;11.90;75.00;;;;;;3605489;39;20108;-79
2021/04/17 09:45:39;;;;;;;9.48;0.80;;;12.00;74.60;;;;;;3605078;39;20044;-77
2021/04/17 09:48:08;;;;;;;5.28;1.52;;;12.20;71.70;;;;;;3606399;39;20039;-78
2021/04/17 09:50:35;;;;;;;2.55;0.60;;;12.20;72.40;;;;;;3601038;39;20532;-77
2021/04/17 09:53:15;;;;;;;4.47;0.47;;;12.10;70.60;;;;;;3588535;39;20068;-77
2021/04/17 09:55:52;;;;;;;5.32;1.17;;;12.10;70.00;;;;;;3601397;39;20040;-78
2021/04/17 09:58:22;;;;;;;2.38;0.45;;;12.10;68.30;;;;;;3591750;39;20417;-77
2021/04/17 10:00:49;;;;;;;3.33;0.63;;;12.00;73.00;;;;;;3602970;39;20057;-78
2021/04/17 10:03:31;;;;;;;3.63;0.57;;;12.10;72.80;;;;;;3605018;39;20370;-77
2021/04/17 10:05:58;;;;;;;6.35;0.80;;;12.20;71.40;;;;;;3595145;39;20040;-77
2021/04/17 10:08:31;;;;;;;5.00;0.85;;;12.20;73.10;;;;;;3596127;39;20040;-77
2021/04/17 10:10:58;;;;;;;4.20;0.50;;;12.20;73.90;;;;;;3604540;39;20046;-78
2021/04/17 10:13:44;;;;;;;3.03;0.55;;;12.20;72.90;;;;;;3603588;39;20308;-77
2021/04/17 10:16:11;;;;;;;3.45;0.40;;;12.40;70.20;;;;;;3595465;39;20051;-77
2021/04/17 10:18:38;;;;;;;3.35;1.17;;;12.40;69.10;;;;;;3604459;39;20035;-77
2021/04/17 10:21:06;;;;;;;6.63;0.70;;;12.40;70.20;;;;;;3596850;39;20050;-78
2021/04/17 10:23:32;;;;;;;5.15;1.98;;;12.30;72.60;;;;;;3599618;39;20132;-77
2021/04/17 10:26:09;;;;;;;5.03;0.80;;;12.30;72.40;;;;;;3602994;39;20039;-78
2021/04/17 10:28:37;;;;;;;6.50;2.42;;;12.30;71.50;;;;;;3601188;39;20361;-78
2021/04/17 10:31:17;;;;;;;5.32;0.73;;;12.50;73.80;;;;;;3603518;39;20062;-78
2021/04/17 10:33:45;;;;;;;2.22;0.40;;;12.60;66.20;;;;;;3602848;39;20337;-78
2021/04/17 10:36:16;;;;;;;7.57;0.90;;;12.40;75.00;;;;;;3604610;39;20035;-78
2021/04/17 10:38:42;;;;;;;4.95;0.85;;;12.40;73.90;;;;;;3603925;39;20039;-78
2021/04/17 10:41:13;;;;;;;3.13;0.50;;;12.50;73.00;;;;;;3596488;39;20031;-78
2021/04/17 10:43:39;;;;;;;4.18;0.40;;;12.60;72.10;;;;;;3596734;39;20047;-77
2021/04/17 10:46:06;;;;;;;4.65;0.40;;;12.70;70.30;;;;;;3602873;39;20129;-78
2021/04/17 10:48:46;;;;;;;6.13;0.52;;;12.70;71.40;;;;;;3595677;39;20046;-77
2021/04/17 10:51:16;;;;;;;4.47;0.73;;;12.60;68.30;;;;;;3592860;39;20059;-77
2021/04/17 10:53:44;;;;;;;4.00;1.05;;;12.50;71.00;;;;;;3601836;39;20355;-77
2021/04/17 10:56:19;;;;;;;2.85;0.30;;;12.50;72.20;;;;;;3603221;39;20079;-78
2021/04/17 10:58:48;;;;;;;3.40;0.30;;;12.70;72.30;;;;;;3600210;39;20309;-77
2021/04/17 11:01:37;;;;;;;5.85;0.30;;;12.80;73.40;;;;;;3595122;39;20035;-78
2021/04/17 11:04:04;;;;;;;3.90;1.13;;;13.10;66.90;;;;;;3596885;39;20040;-78
2021/04/17 11:06:37;;;;;;;3.88;0.40;;;13.30;68.90;;;;;;3607087;39;20043;-78
2021/04/17 11:09:14;;;;;;;4.95;0.40;;;13.40;67.80;;;;;;3606359;39;20039;-77
2021/04/17 11:11:53;;;;;;;3.80;0.60;;;13.50;62.80;;;;;;3605160;39;20479;-78
2021/04/17 11:14:21;;;;;;;5.63;0.50;;;13.60;63.70;;;;;;3606737;39;20040;-78
2021/04/17 11:16:50;;;;;;;2.88;0.30;;;13.40;63.40;;;;;;3606780;39;20039;-78
2021/04/17 11:19:42;;;;;;;3.90;0.90;;;13.20;67.10;;;;;;3602861;39;20143;-78
2021/04/17 11:22:19;;;;;;;2.63;0.30;;;13.20;67.10;;;;;;3600140;39;20040;-78
2021/04/17 11:25:04;;;;;;;6.00;0.93;;;13.30;64.60;;;;;;3603881;39;20135;-78
2021/04/17 11:27:31;;;;;;;1.95;0.20;;;13.00;62.50;;;;;;3604778;39;20039;-78
2021/04/17 11:29:57;;;;;;;2.70;0.25;;;12.90;70.60;;;;;;3595263;39;20039;-78
2021/04/17 11:32:26;;;;;;;3.35;0.30;;;13.00;67.80;;;;;;3605459;39;20063;-77
2021/04/17 11:34:52;;;;;;;5.22;0.47;;;13.10;64.30;;;;;;3605887;39;20163;-78
2021/04/17 11:37:20;;;;;;;2.28;0.40;;;13.20;68.30;;;;;;3606088;39;20042;-78
2021/04/17 11:39:46;;;;;;;4.45;1.02;;;13.20;65.50;;;;;;3606733;39;20055;-77
2021/04/17 11:42:13;;;;;;;3.35;0.38;;;13.50;66.80;;;;;;3604226;39;20044;-78
2021/04/17 11:44:39;;;;;;;5.32;0.43;;;13.60;67.50;;;;;;3603682;39;20043;-78
2021/04/17 11:47:05;;;;;;;2.47;0.35;;;13.60;66.90;;;;;;3602870;39;20043;-78
2021/04/17 11:49:31;;;;;;;5.47;0.50;;;13.60;70.20;;;;;;3594554;39;20031;-78
2021/04/17 11:51:57;;;;;;;5.20;0.40;;;13.70;68.80;;;;;;3603562;39;20035;-78
2021/04/17 11:54:23;;;;;;;5.13;0.47;;;13.70;66.20;;;;;;3595067;39;20124;-78
2021/04/17 11:56:48;;;;;;;2.25;0.22;;;13.70;67.70;;;;;;3605736;39;20043;-78
2021/04/17 11:59:15;;;;;;;3.40;0.65;;;13.80;70.30;;;;;;3605488;39;20377;-77
2021/04/17 12:01:41;;;;;;;2.35;0.35;;;13.80;68.70;;;;;;3606727;39;20059;-78
2021/04/17 12:04:07;;;;;;;2.35;0.20;;;13.70;68.80;;;;;;3605510;39;20046;-78
2021/04/17 12:06:33;;;;;;;5.75;1.10;;;13.70;68.70;;;;;;3593252;39;20035;-78
2021/04/17 12:08:59;;;;;;;5.80;0.52;;;13.60;70.20;;;;;;3596736;39;20117;-78
2021/04/17 12:11:25;;;;;;;2.88;0.30;;;13.70;67.80;;;;;;3603945;39;20043;-77
2021/04/17 12:13:52;;;;;;;0.88;0.20;;;13.70;67.30;;;;;;3606695;39;20345;-78
2021/04/17 12:16:18;;;;;;;3.28;0.30;;;13.80;65.60;;;;;;3602408;39;20042;-77
2021/04/17 12:18:45;;;;;;;3.60;0.95;;;13.70;64.70;;;;;;3589559;39;20064;-78
2021/04/17 12:21:11;;;;;;;1.60;0.20;;;13.70;67.00;;;;;;3604286;39;20334;-77
2021/04/17 12:23:37;;;;;;;2.88;0.30;;;13.60;64.30;;;;;;3600534;39;20350;-78
2021/04/17 12:26:06;;;;;;;7.93;0.40;;;13.60;64.60;;;;;;3602036;39;20089;-77
2021/04/17 12:28:32;;;;;;;3.08;1.52;;;13.40;66.00;;;;;;3603746;39;20031;-78
2021/04/17 12:30:58;;;;;;;2.40;0.43;;;13.30;64.80;;;;;;3604234;39;20043;-77
2021/04/17 12:33:26;;;;;;;1.75;0.30;;;13.20;65.10;;;;;;3605323;39;20043;-78
2021/04/17 12:35:52;;;;;;;0.65;0.10;;;13.10;67.30;;;;;;3606741;39;20532;-77
2021/04/17 12:38:18;;;;;;;5.07;0.30;;;13.20;60.20;;;;;;3593639;39;20330;-77
2021/04/17 12:40:44;;;;;;;0.98;0.20;;;13.20;64.10;;;;;;3601349;39;20028;-78
2021/04/17 12:43:13;;;;;;;3.13;0.20;;;13.20;59.80;;;;;;3604581;39;20120;-77
2021/04/17 12:45:40;;;;;;;1.58;0.20;;;13.10;61.90;;;;;;3602441;39;20039;-77
2021/04/17 12:48:06;;;;;;;1.05;0.20;;;13.20;66.20;;;;;;3604938;39;20039;-78
2021/04/17 12:50:33;;;;;;;1.70;0.20;;;13.30;63.20;;;;;;3603715;39;20091;-78
2021/04/17 12:52:59;;;;;;;3.75;0.20;;;13.20;62.60;;;;;;3605531;39;20053;-78
2021/04/17 12:55:25;;;;;;;3.63;0.28;;;13.20;66.00;;;;;;3604728;39;20334;-77
2021/04/17 12:57:51;;;;;;;5.07;0.20;;;13.20;65.60;;;;;;3606256;39;20620;-78